Time;durP1;ratioP1;P1;durP2;ratioP2;P2;SDS_P1;SDS_P2;PMS_P1;PMS_P2;Temp;Humidity;BMP_temperature;BMP_pressure;BME280_temperature;BME280_humidity;BME280_pressure;Samples;Min_cycle;Max_cycle;Signal;HPM_P1;HPM_P2
2023/05/26 00:00:57;;;;;;;2.67;2.47;;;20.60;45.60;;;;;;5011783;28;20320;-69
2023/05/26 00:03:23;;;;;;;2.73;2.47;;;20.60;45.50;;;;;;5016970;28;20643;-70
2023/05/26 00:05:49;;;;;;;5.90;2.70;;;20.60;45.40;;;;;;5007747;28;20687;-70
2023/05/26 00:08:14;;;;;;;3.07;2.63;;;20.60;45.60;;;;;;5007199;28;21036;-70
2023/05/26 00:10:40;;;;;;;4.00;2.90;;;20.60;45.50;;;;;;5009555;28;21167;-70
2023/05/26 00:13:06;;;;;;;2.57;2.37;;;20.60;45.40;;;;;;5001313;28;20288;-70
2023/05/26 00:15:32;;;;;;;2.73;2.53;;;20.60;45.40;;;;;;5002877;28;20474;-69
2023/05/26 00:17:58;;;;;;;3.10;2.80;;;20.60;45.40;;;;;;5002973;28;20234;-69
2023/05/26 00:20:25;;;;;;;4.23;3.47;;;20.60;45.50;;;;;;5002223;28;20713;-71
2023/05/26 00:22:51;;;;;;;3.30;2.87;;;20.60;45.40;;;;;;4996088;28;20227;-71
2023/05/26 00:25:16;;;;;;;3.23;3.00;;;20.60;45.40;;;;;;5002504;28;20861;-69
2023/05/26 00:27:42;;;;;;;3.00;2.80;;;20.60;45.40;;;;;;5000308;28;20222;-68
2023/05/26 00:30:09;;;;;;;2.90;2.70;;;20.60;45.30;;;;;;4996391;28;21888;-68
2023/05/26 00:32:35;;;;;;;2.50;2.30;;;20.60;45.30;;;;;;5003053;28;20318;-71
2023/05/26 00:35:00;;;;;;;3.30;3.00;;;20.60;46.10;;;;;;5004212;28;20993;-69
2023/05/26 00:37:26;;;;;;;2.70;2.50;;;20.60;45.20;;;;;;5002180;28;20219;-70
2023/05/26 00:39:51;;;;;;;2.67;2.47;;;20.60;45.30;;;;;;4992176;28;20223;-70
2023/05/26 00:42:17;;;;;;;2.37;2.10;;;20.60;45.20;;;;;;4991979;28;20219;-71
2023/05/26 00:44:42;;;;;;;2.90;2.70;;;20.60;45.20;;;;;;4995454;28;20211;-70
2023/05/26 00:47:08;;;;;;;4.40;2.40;;;20.60;45.20;;;;;;5009876;28;20215;-70
2023/05/26 00:49:34;;;;;;;3.13;2.70;;;20.60;45.20;;;;;;5000087;28;20238;-70
2023/05/26 00:52:00;;;;;;;3.07;2.77;;;20.60;45.20;;;;;;5001149;28;20266;-69
2023/05/26 00:54:25;;;;;;;2.70;2.50;;;20.60;45.20;;;;;;5012984;28;20254;-70
2023/05/26 00:56:52;;;;;;;2.50;2.30;;;20.60;45.20;;;;;;5006756;28;20540;-70
2023/05/26 00:59:18;;;;;;;2.90;2.63;;;20.60;45.20;;;;;;5007308;28;20768;-68
2023/05/26 01:01:44;;;;;;;3.13;2.43;;;20.60;45.20;;;;;;5003495;28;21062;-70
2023/05/26 01:04:10;;;;;;;3.47;2.70;;;20.60;45.20;;;;;;4999981;28;20447;-71
2023/05/26 01:06:35;;;;;;;3.23;3.03;;;20.60;45.20;;;;;;4998225;28;20310;-71
2023/05/26 01:09:02;;;;;;;3.53;2.83;;;20.60;45.20;;;;;;4994791;28;20607;-70
2023/05/26 01:11:56;;;;;;;4.80;2.77;;;20.60;45.20;;;;;;5000969;28;20257;-70
2023/05/26 01:14:47;;;;;;;2.53;2.30;;;20.60;45.20;;;;;;5000277;28;20439;-70
2023/05/26 01:17:19;;;;;;;2.80;2.60;;;20.60;45.30;;;;;;5003620;28;21037;-70
2023/05/26 01:20:07;;;;;;;2.80;2.40;;;20.60;45.20;;;;;;4996346;28;20515;-68
2023/05/26 01:22:35;;;;;;;2.97;2.50;;;20.60;45.20;;;;;;5004175;28;20468;-70
2023/05/26 01:25:30;;;;;;;2.60;2.40;;;20.60;45.20;;;;;;5006061;28;20460;-70
2023/05/26 01:28:06;;;;;;;3.43;2.23;;;20.60;45.20;;;;;;4994593;28;20474;-71
2023/05/26 01:30:34;;;;;;;4.23;2.37;;;20.60;45.20;;;;;;5007806;28;20462;-71
2023/05/26 01:32:59;;;;;;;4.33;2.30;;;20.60;45.20;;;;;;4996352;28;20497;-70
2023/05/26 01:35:25;;;;;;;2.60;2.13;;;20.60;45.20;;;;;;5004517;28;20576;-71
2023/05/26 01:37:52;;;;;;;2.93;2.70;;;20.60;45.20;;;;;;4998009;28;20685;-71
2023/05/26 01:40:18;;;;;;;3.80;2.23;;;20.60;45.20;;;;;;5004892;28;20732;-69
2023/05/26 01:43:11;;;;;;;2.93;2.00;;;20.60;45.20;;;;;;5011220;28;20802;-71
2023/05/26 01:45:54;;;;;;;3.63;2.47;;;20.50;45.10;;;;;;5005928;28;20457;-71
2023/05/26 01:48:20;;;;;;;4.00;2.80;;;20.60;45.20;;;;;;4991370;28;20444;-68
2023/05/26 01:51:00;;;;;;;2.43;2.20;;;20.50;45.10;;;;;;5001125;28;20443;-70
2023/05/26 01:53:35;;;;;;;4.30;2.40;;;20.60;45.20;;;;;;4995881;28;20506;-70
2023/05/26 01:56:02;;;;;;;2.50;2.30;;;20.60;45.20;;;;;;5002802;28;20447;-69
2023/05/26 01:58:29;;;;;;;2.53;2.20;;;20.50;45.10;;;;;;5000204;28;20446;-70
2023/05/26 02:00:56;;;;;;;3.10;2.53;;;20.50;45.10;;;;;;4998850;28;21388;-68
2023/05/26 02:03:22;;;;;;;3.13;2.50;;;20.60;45.20;;;;;;5006037;28;20464;-70
2023/05/26 02:05:47;;;;;;;3.57;2.33;;;20.60;45.20;;;;;;4994850;28;20439;-70
2023/05/26 02:08:13;;;;;;;2.47;2.27;;;20.50;45.10;;;;;;4997839;28;20311;-68
2023/05/26 02:10:39;;;;;;;2.40;1.87;;;20.50;45.10;;;;;;4996912;28;20239;-70
2023/05/26 02:13:05;;;;;;;3.73;2.30;;;20.50;45.10;;;;;;5005025;28;20213;-70
2023/05/26 02:15:31;;;;;;;3.10;2.50;;;20.50;45.10;;;;;;5004791;28;20226;-71
2023/05/26 02:17:57;;;;;;;2.77;2.00;;;20.60;45.20;;;;;;5000861;28;20801;-70
2023/05/26 02:20:26;;;;;;;2.53;2.10;;;20.50;45.10;;;;;;5001871;28;20578;-68
2023/05/26 02:22:52;;;;;;;2.70;2.30;;;20.50;45.10;;;;;;5004578;28;20443;-69
2023/05/26 02:25:17;;;;;;;2.37;2.17;;;20.50;45.10;;;;;;4998680;28;22232;-69
2023/05/26 02:27:43;;;;;;;2.03;1.80;;;20.50;45.10;;;;;;5005591;28;20250;-70
2023/05/26 02:30:09;;;;;;;2.43;2.20;;;20.50;45.10;;;;;;5011199;28;20281;-71
2023/05/26 02:32:36;;;;;;;2.10;2.00;;;20.50;45.90;;;;;;5000817;28;20230;-68
2023/05/26 02:35:03;;;;;;;4.17;2.63;;;20.50;45.10;;;;;;5002373;28;20953;-71
2023/05/26 02:37:29;;;;;;;2.60;2.40;;;20.50;45.10;;;;;;5006100;28;22465;-71
2023/05/26 02:39:55;;;;;;;2.30;2.10;;;20.50;45.10;;;;;;5008678;28;21211;-70
2023/05/26 02:42:21;;;;;;;2.97;2.60;;;20.50;45.10;;;;;;5010913;28;20240;-70
2023/05/26 02:44:46;;;;;;;2.60;2.07;;;20.50;45.10;;;;;;5000156;28;21542;-71
2023/05/26 02:47:12;;;;;;;3.60;2.03;;;20.50;45.10;;;;;;5004438;28;20220;-70
2023/05/26 02:49:37;;;;;;;2.23;1.93;;;20.50;45.10;;;;;;5000115;28;20234;-70
2023/05/26 02:52:03;;;;;;;3.70;2.10;;;20.50;45.10;;;;;;4995824;28;20227;-70
2023/05/26 02:54:29;;;;;;;2.37;2.17;;;20.50;45.10;;;;;;5008736;28;20235;-70
2023/05/26 02:56:54;;;;;;;3.40;2.00;;;20.50;45.10;;;;;;5010370;28;20222;-71
2023/05/26 02:59:20;;;;;;;2.03;1.83;;;20.50;45.10;;;;;;5002368;28;22969;-70
2023/05/26 03:01:45;;;;;;;1.83;1.73;;;20.50;45.10;;;;;;4999930;28;20276;-69
2023/05/26 03:04:11;;;;;;;2.70;1.73;;;20.50;45.10;;;;;;5003876;28;20229;-71
2023/05/26 03:06:36;;;;;;;4.20;2.10;;;20.50;45.10;;;;;;5007626;28;20227;-71
2023/05/26 03:09:02;;;;;;;3.17;2.20;;;20.50;45.10;;;;;;5000742;28;20234;-68
2023/05/26 03:11:28;;;;;;;2.50;2.27;;;20.50;45.90;;;;;;4989745;28;20238;-71
2023/05/26 03:13:53;;;;;;;2.40;2.20;;;20.50;45.10;;;;;;4987757;28;20697;-69
2023/05/26 03:16:19;;;;;;;2.33;2.13;;;20.50;45.10;;;;;;4998482;28;20236;-70
2023/05/26 03:18:45;;;;;;;4.07;2.10;;;20.50;45.10;;;;;;5001174;28;20357;-68
2023/05/26 03:21:10;;;;;;;3.50;2.00;;;20.50;45.10;;;;;;5015661;28;20227;-70
2023/05/26 03:23:36;;;;;;;2.53;2.27;;;20.50;45.10;;;;;;5000423;28;20223;-70
2023/05/26 03:26:02;;;;;;;2.20;2.00;;;20.50;45.10;;;;;;5001314;28;20249;-69
2023/05/26 03:28:27;;;;;;;2.50;2.30;;;20.50;45.10;;;;;;5005181;28;20854;-70
2023/05/26 03:30:53;;;;;;;4.60;2.50;;;20.50;45.10;;;;;;5004095;28;20219;-71
2023/05/26 03:33:18;;;;;;;2.27;1.90;;;20.50;45.10;;;;;;4995787;28;20302;-70
2023/05/26 03:35:44;;;;;;;3.10;1.67;;;20.50;45.00;;;;;;5006121;28;20222;-69
2023/05/26 03:38:10;;;;;;;3.77;1.97;;;20.50;44.90;;;;;;5005193;28;20226;-70
2023/05/26 03:40:35;;;;;;;2.50;2.27;;;20.50;44.90;;;;;;5015129;28;20833;-69
2023/05/26 03:43:01;;;;;;;5.57;2.70;;;20.50;44.70;;;;;;5012017;28;20285;-70
2023/05/26 03:45:27;;;;;;;3.93;1.80;;;20.50;44.70;;;;;;5001393;28;20269;-71
2023/05/26 03:47:53;;;;;;;3.80;1.93;;;20.50;44.60;;;;;;5005723;28;20218;-70
2023/05/26 03:50:18;;;;;;;1.90;1.50;;;20.50;44.60;;;;;;5007775;28;20787;-70
2023/05/26 03:52:44;;;;;;;8.43;2.30;;;20.50;44.40;;;;;;5006644;28;21816;-69
2023/05/26 03:55:10;;;;;;;3.63;1.70;;;20.50;44.30;;;;;;5006516;28;22956;-70
2023/05/26 03:57:37;;;;;;;6.23;2.07;;;20.50;44.30;;;;;;5004221;28;20227;-70
2023/05/26 04:00:04;;;;;;;4.57;3.00;;;20.50;44.20;;;;;;5004272;28;20485;-70
2023/05/26 04:02:29;;;;;;;6.87;2.60;;;20.50;44.20;;;;;;4994906;28;20843;-71
2023/05/26 04:04:55;;;;;;;3.20;2.00;;;20.50;44.10;;;;;;5005489;28;20464;-71
2023/05/26 04:07:21;;;;;;;2.47;2.00;;;20.50;44.50;;;;;;5003241;28;20223;-69
2023/05/26 04:09:47;;;;;;;3.10;2.17;;;20.50;44.20;;;;;;5007179;28;20440;-70
2023/05/26 04:12:12;;;;;;;4.93;2.17;;;20.50;44.10;;;;;;5006218;28;20268;-70
2023/05/26 04:14:38;;;;;;;2.13;1.90;;;20.50;44.10;;;;;;4995809;28;20234;-70
2023/05/26 04:17:03;;;;;;;2.77;2.00;;;20.50;44.00;;;;;;4983267;28;20893;-68
2023/05/26 04:19:29;;;;;;;3.93;2.17;;;20.50;44.00;;;;;;5004876;28;20269;-68
2023/05/26 04:21:55;;;;;;;3.93;2.07;;;20.50;44.00;;;;;;4991918;28;21103;-73
2023/05/26 04:24:20;;;;;;;2.47;2.27;;;20.50;43.90;;;;;;4998175;28;20231;-70
2023/05/26 04:26:46;;;;;;;3.57;1.80;;;20.50;44.00;;;;;;5005256;28;20334;-73
2023/05/26 04:29:12;;;;;;;2.30;1.83;;;20.50;43.90;;;;;;4989753;28;20238;-71
2023/05/26 04:31:40;;;;;;;3.70;1.80;;;20.50;44.00;;;;;;4992584;28;21537;-72
2023/05/26 04:34:07;;;;;;;3.70;2.00;;;20.50;43.90;;;;;;4992590;28;20272;-74
2023/05/26 04:36:32;;;;;;;2.63;2.20;;;20.50;44.00;;;;;;4989536;28;20447;-71
2023/05/26 04:38:58;;;;;;;4.30;2.20;;;20.50;43.90;;;;;;4988509;28;20503;-73
2023/05/26 04:41:24;;;;;;;2.57;1.67;;;20.50;43.90;;;;;;4994360;28;20226;-72
2023/05/26 04:43:50;;;;;;;8.00;2.30;;;20.50;43.90;;;;;;4992854;28;20224;-72
2023/05/26 04:46:16;;;;;;;3.47;1.80;;;20.50;43.90;;;;;;4988238;28;20439;-73
2023/05/26 04:48:42;;;;;;;2.50;1.83;;;20.50;43.90;;;;;;4999929;28;20272;-72
2023/05/26 04:51:07;;;;;;;3.77;2.00;;;20.50;43.90;;;;;;4999399;28;20447;-72
2023/05/26 04:53:34;;;;;;;2.20;2.00;;;20.50;43.90;;;;;;5005501;28;20736;-70
2023/05/26 04:56:00;;;;;;;4.40;1.90;;;20.50;43.90;;;;;;5002111;28;20223;-73
2023/05/26 04:58:26;;;;;;;3.10;2.03;;;20.50;43.90;;;;;;4988324;28;20451;-73
2023/05/26 05:00:53;;;;;;;2.33;1.83;;;20.50;43.90;;;;;;4991828;28;20645;-72
2023/05/26 05:03:20;;;;;;;3.73;2.40;;;20.50;44.00;;;;;;5002230;28;20247;-73
2023/05/26 05:05:46;;;;;;;2.20;1.73;;;20.50;44.00;;;;;;5009355;28;20879;-73
2023/05/26 05:08:12;;;;;;;3.17;2.13;;;20.50;43.90;;;;;;5007134;28;20456;-72
2023/05/26 05:10:37;;;;;;;1.97;1.83;;;20.50;44.70;;;;;;5004614;28;20429;-72
2023/05/26 05:13:03;;;;;;;4.80;2.13;;;20.50;44.00;;;;;;4998624;28;20252;-70
2023/05/26 05:15:29;;;;;;;5.03;1.90;;;20.50;44.00;;;;;;5005301;28;21199;-72
2023/05/26 05:17:54;;;;;;;2.10;1.90;;;20.50;44.00;;;;;;5003682;28;20231;-73
2023/05/26 05:20:20;;;;;;;3.80;2.50;;;20.50;44.10;;;;;;5007679;28;20272;-73
2023/05/26 05:22:46;;;;;;;3.30;2.57;;;20.60;44.20;;;;;;4995750;28;20226;-77
2023/05/26 05:25:11;;;;;;;1.80;1.70;;;20.50;44.00;;;;;;5002034;28;20370;-74
2023/05/26 05:27:37;;;;;;;2.40;1.90;;;20.50;44.00;;;;;;5008560;28;20215;-74
2023/05/26 05:30:03;;;;;;;2.23;2.03;;;20.50;44.00;;;;;;5002118;28;20301;-78
2023/05/26 05:32:29;;;;;;;3.20;2.47;;;20.50;44.10;;;;;;4998962;28;20230;-76
2023/05/26 05:34:55;;;;;;;3.60;2.00;;;20.50;44.10;;;;;;5006622;28;20458;-73
2023/05/26 05:37:20;;;;;;;2.80;2.10;;;20.50;44.10;;;;;;5006401;28;20251;-75
2023/05/26 05:39:46;;;;;;;5.87;2.60;;;20.60;44.20;;;;;;5000246;28;20578;-77
2023/05/26 05:42:11;;;;;;;5.70;2.03;;;20.50;44.10;;;;;;5007791;28;20237;-77
2023/05/26 05:44:37;;;;;;;3.77;2.90;;;20.50;44.90;;;;;;5005904;28;20222;-74
2023/05/26 05:47:03;;;;;;;5.23;3.03;;;20.50;44.20;;;;;;4987349;28;20221;-74
2023/05/26 05:49:28;;;;;;;2.67;2.17;;;20.50;44.20;;;;;;5001311;28;20757;-74
2023/05/26 05:51:54;;;;;;;2.60;1.70;;;20.50;44.20;;;;;;5013180;28;20227;-75
2023/05/26 05:54:19;;;;;;;2.00;1.80;;;20.60;44.30;;;;;;4993867;28;20223;-75
2023/05/26 05:56:45;;;;;;;4.23;2.67;;;20.60;44.30;;;;;;5003210;28;20913;-75
2023/05/26 05:59:10;;;;;;;2.80;2.07;;;20.50;44.10;;;;;;5008007;28;20244;-75
2023/05/26 06:01:36;;;;;;;2.13;1.93;;;20.50;44.20;;;;;;5009988;28;20210;-74
2023/05/26 06:04:02;;;;;;;2.63;2.10;;;20.50;44.20;;;;;;5041229;28;20231;-75
2023/05/26 06:06:28;;;;;;;5.70;2.50;;;20.50;44.20;;;;;;5005976;28;20439;-74
2023/05/26 06:08:54;;;;;;;1.83;1.70;;;20.60;44.30;;;;;;5006424;28;20727;-75
2023/05/26 06:11:21;;;;;;;2.53;2.13;;;20.60;44.30;;;;;;5007340;28;20250;-74
2023/05/26 06:13:46;;;;;;;2.70;2.43;;;20.60;44.30;;;;;;5004734;28;20268;-75
2023/05/26 06:16:12;;;;;;;2.10;1.90;;;20.60;44.30;;;;;;5007746;28;20472;-75
2023/05/26 06:18:37;;;;;;;3.43;2.40;;;20.60;44.30;;;;;;5000366;28;20401;-75
2023/05/26 06:21:03;;;;;;;3.00;2.20;;;20.60;44.30;;;;;;4992112;28;20274;-75
2023/05/26 06:23:29;;;;;;;2.63;2.17;;;20.60;44.30;;;;;;5000519;28;20251;-75
2023/05/26 06:25:54;;;;;;;2.83;2.50;;;20.60;44.30;;;;;;4999022;28;20277;-75
2023/05/26 06:28:20;;;;;;;2.90;2.20;;;20.60;44.40;;;;;;5003447;28;20218;-76
2023/05/26 06:30:45;;;;;;;2.23;2.03;;;20.60;44.40;;;;;;4998050;28;20239;-73
2023/05/26 06:33:11;;;;;;;2.40;2.20;;;20.60;44.40;;;;;;4996943;28;20211;-74
2023/05/26 06:35:36;;;;;;;4.17;3.00;;;20.60;44.40;;;;;;5001977;28;20230;-75
2023/05/26 06:38:02;;;;;;;2.10;2.00;;;20.60;44.40;;;;;;4993596;28;20223;-75
2023/05/26 06:40:27;;;;;;;2.80;2.43;;;20.60;44.40;;;;;;4997291;28;20227;-75
2023/05/26 06:42:53;;;;;;;2.27;2.10;;;20.60;44.50;;;;;;4997229;28;20215;-75
2023/05/26 06:45:18;;;;;;;2.63;2.43;;;20.60;44.40;;;;;;4998635;28;20755;-75
2023/05/26 06:47:44;;;;;;;2.60;2.40;;;20.60;44.60;;;;;;5002247;28;20230;-74
2023/05/26 06:50:10;;;;;;;2.70;2.37;;;20.60;44.50;;;;;;5011661;28;20594;-76
2023/05/26 06:52:35;;;;;;;2.47;2.03;;;20.60;44.50;;;;;;5015702;28;20633;-76
2023/05/26 06:55:01;;;;;;;2.50;2.20;;;20.60;44.50;;;;;;5012346;28;20243;-75
2023/05/26 06:57:26;;;;;;;3.80;2.50;;;20.60;44.50;;;;;;5004781;28;20218;-75
2023/05/26 06:59:52;;;;;;;2.00;1.90;;;20.60;44.50;;;;;;5013189;28;20372;-75
2023/05/26 07:02:17;;;;;;;2.90;2.20;;;20.60;44.50;;;;;;4997485;28;20224;-76
2023/05/26 07:04:43;;;;;;;5.00;2.70;;;20.60;44.50;;;;;;5001404;28;20339;-74
2023/05/26 07:07:09;;;;;;;2.20;2.07;;;20.60;44.60;;;;;;4999945;28;20284;-76
2023/05/26 07:09:35;;;;;;;3.03;1.90;;;20.60;44.50;;;;;;5002029;28;20927;-74
2023/05/26 07:12:00;;;;;;;2.10;2.00;;;20.60;44.60;;;;;;5004093;28;20258;-75
2023/05/26 07:14:26;;;;;;;2.60;2.40;;;20.60;44.60;;;;;;5011841;28;20222;-74
2023/05/26 07:16:51;;;;;;;3.10;2.50;;;20.60;44.60;;;;;;4992943;28;20228;-75
2023/05/26 07:19:17;;;;;;;2.37;2.17;;;20.60;44.60;;;;;;5005366;28;20249;-76
2023/05/26 07:21:42;;;;;;;3.47;2.20;;;20.60;44.60;;;;;;4994709;28;20741;-75
2023/05/26 07:24:08;;;;;;;2.70;2.50;;;20.60;44.60;;;;;;5007631;28;20239;-76
2023/05/26 07:26:33;;;;;;;2.93;2.73;;;20.60;44.60;;;;;;5001911;28;20428;-74
2023/05/26 07:28:59;;;;;;;2.57;2.37;;;20.60;44.60;;;;;;4997050;28;20230;-76
2023/05/26 07:31:25;;;;;;;3.17;2.80;;;20.60;44.60;;;;;;4993796;28;21664;-76
2023/05/26 07:33:50;;;;;;;3.50;2.43;;;20.60;44.60;;;;;;4991638;28;20242;-76
2023/05/26 07:36:16;;;;;;;2.43;2.23;;;20.60;44.70;;;;;;5016519;28;20234;-76
2023/05/26 07:38:41;;;;;;;2.80;2.33;;;20.60;44.60;;;;;;5005054;28;20345;-76
2023/05/26 07:41:07;;;;;;;2.57;2.30;;;20.60;44.70;;;;;;4996989;28;20247;-76
2023/05/26 07:43:33;;;;;;;3.00;2.50;;;20.60;44.70;;;;;;5009257;28;20228;-76
2023/05/26 07:45:59;;;;;;;2.50;2.30;;;20.60;44.70;;;;;;5014522;28;20276;-76
2023/05/26 07:48:25;;;;;;;2.60;2.27;;;20.60;44.70;;;;;;5006380;28;21188;-75
2023/05/26 07:50:50;;;;;;;3.20;2.90;;;20.60;44.60;;;;;;5005558;28;20447;-76
2023/05/26 07:53:18;;;;;;;3.23;2.70;;;20.60;44.60;;;;;;4999071;28;20821;-76
2023/05/26 07:55:43;;;;;;;2.80;2.60;;;20.60;44.70;;;;;;4996831;28;20361;-75
2023/05/26 07:58:12;;;;;;;2.53;2.33;;;20.60;44.70;;;;;;4996792;28;20550;-76
2023/05/26 08:00:38;;;;;;;2.70;2.50;;;20.60;44.70;;;;;;5005888;28;20227;-75
2023/05/26 08:03:04;;;;;;;2.20;2.03;;;20.60;44.70;;;;;;4997149;28;20451;-76
2023/05/26 08:05:30;;;;;;;2.40;2.30;;;20.60;44.80;;;;;;4995603;28;20227;-77
2023/05/26 08:07:56;;;;;;;2.83;2.27;;;20.60;44.70;;;;;;4993917;28;20441;-73
2023/05/26 08:10:22;;;;;;;2.80;2.50;;;20.60;44.70;;;;;;5016908;28;20450;-76
2023/05/26 08:12:48;;;;;;;2.23;2.07;;;20.60;44.70;;;;;;5007368;28;20227;-76
2023/05/26 08:15:15;;;;;;;2.07;1.97;;;20.60;44.80;;;;;;5000239;28;20787;-76
2023/05/26 08:17:42;;;;;;;2.90;2.10;;;20.60;44.80;;;;;;5003315;28;20341;-76
2023/05/26 08:20:08;;;;;;;3.10;2.73;;;20.60;44.70;;;;;;4997542;28;20939;-76
2023/05/26 08:22:34;;;;;;;2.40;2.20;;;20.60;44.80;;;;;;4992632;28;20971;-76
2023/05/26 08:25:00;;;;;;;2.50;2.30;;;20.70;44.80;;;;;;4998800;28;20457;-76
2023/05/26 08:27:26;;;;;;;3.10;2.20;;;20.60;44.80;;;;;;5000189;28;20458;-74
2023/05/26 08:29:51;;;;;;;2.30;2.10;;;20.60;44.80;;;;;;5002120;28;20228;-76
2023/05/26 08:32:17;;;;;;;4.40;2.23;;;20.70;45.00;;;;;;5026325;28;20262;-76
2023/05/26 08:34:42;;;;;;;2.63;2.43;;;20.60;44.80;;;;;;5004335;28;20267;-74
2023/05/26 08:37:11;;;;;;;3.20;2.90;;;20.60;44.80;;;;;;5013246;28;20227;-76
2023/05/26 08:39:37;;;;;;;2.40;2.20;;;20.70;45.00;;;;;;5004104;28;20234;-77
2023/05/26 08:42:09;;;;;;;2.70;2.50;;;20.70;44.90;;;;;;4997012;28;20451;-76
2023/05/26 08:44:35;;;;;;;2.20;2.00;;;20.70;44.90;;;;;;5003381;28;20231;-76
2023/05/26 08:47:03;;;;;;;2.67;2.43;;;20.70;45.00;;;;;;5012087;28;20464;-76
2023/05/26 08:49:36;;;;;;;2.80;2.37;;;20.70;44.90;;;;;;5004347;28;20444;-76
2023/05/26 08:52:13;;;;;;;2.33;2.13;;;20.70;44.90;;;;;;5001383;28;20507;-77
2023/05/26 08:54:39;;;;;;;2.30;2.20;;;20.70;45.00;;;;;;5005161;28;20479;-75
2023/05/26 08:57:06;;;;;;;2.63;2.40;;;20.70;44.90;;;;;;5010158;28;20999;-76
2023/05/26 08:59:32;;;;;;;2.50;2.30;;;20.70;45.00;;;;;;5009134;28;21863;-76
2023/05/26 09:01:58;;;;;;;2.40;2.20;;;20.70;45.00;;;;;;5001430;28;20492;-76
2023/05/26 09:04:29;;;;;;;2.57;2.37;;;20.70;45.00;;;;;;4983708;28;20456;-76
2023/05/26 09:06:55;;;;;;;4.27;2.20;;;20.70;45.00;;;;;;5010452;28;20598;-77
2023/05/26 09:09:21;;;;;;;2.13;1.97;;;20.70;44.90;;;;;;5005034;28;20453;-75
2023/05/26 09:11:46;;;;;;;2.30;2.10;;;20.70;45.00;;;;;;4994298;28;20216;-76
2023/05/26 09:14:14;;;;;;;2.70;2.50;;;20.70;45.10;;;;;;5013596;28;20685;-77
2023/05/26 09:16:40;;;;;;;2.53;2.33;;;20.70;45.00;;;;;;5021326;28;20238;-76
2023/05/26 09:19:06;;;;;;;2.33;2.13;;;20.70;44.90;;;;;;5005583;28;21228;-77
2023/05/26 09:21:32;;;;;;;4.03;3.40;;;20.70;45.00;;;;;;5010440;28;20529;-76
2023/05/26 09:24:00;;;;;;;2.40;2.20;;;20.70;45.00;;;;;;5009050;28;20924;-76
2023/05/26 09:26:28;;;;;;;2.60;2.40;;;20.70;45.10;;;;;;5013196;28;20706;-76
2023/05/26 09:28:54;;;;;;;2.50;2.00;;;20.70;45.00;;;;;;5012571;28;20450;-75
2023/05/26 09:31:19;;;;;;;2.20;2.07;;;20.70;45.10;;;;;;5032348;28;20852;-76
2023/05/26 09:33:46;;;;;;;2.40;2.20;;;20.70;45.00;;;;;;5001498;28;20666;-76
2023/05/26 09:36:11;;;;;;;3.37;2.50;;;20.70;45.20;;;;;;5005491;28;20313;-76
2023/05/26 09:38:37;;;;;;;3.37;2.33;;;20.70;45.10;;;;;;4995947;28;20656;-76
2023/05/26 09:41:02;;;;;;;2.40;2.20;;;20.70;45.10;;;;;;4991216;28;20340;-76
2023/05/26 09:43:33;;;;;;;3.07;2.30;;;20.70;45.10;;;;;;4999500;28;20226;-76
2023/05/26 09:45:58;;;;;;;2.30;2.10;;;20.70;45.10;;;;;;5008613;28;20223;-75
2023/05/26 09:48:24;;;;;;;2.00;1.90;;;20.70;45.10;;;;;;4998683;28;21007;-76
2023/05/26 09:50:51;;;;;;;2.10;2.00;;;20.70;45.20;;;;;;4996362;28;20265;-77
2023/05/26 09:53:17;;;;;;;2.27;2.17;;;20.70;45.10;;;;;;5000800;28;20254;-76
2023/05/26 09:55:44;;;;;;;2.73;2.53;;;20.70;45.10;;;;;;4991286;28;20514;-77
2023/05/26 09:58:12;;;;;;;2.43;2.27;;;20.70;45.10;;;;;;4995966;28;20247;-76
2023/05/26 10:00:42;;;;;;;2.20;2.10;;;20.70;45.10;;;;;;4992572;28;20461;-76
2023/05/26 10:03:09;;;;;;;2.53;2.33;;;20.70;45.10;;;;;;5004774;28;20630;-77
2023/05/26 10:05:47;;;;;;;2.40;2.20;;;20.70;45.10;;;;;;4987034;28;21210;-77
2023/05/26 10:08:17;;;;;;;2.43;2.07;;;20.70;45.00;;;;;;4995754;28;21183;-76
2023/05/26 10:10:44;;;;;;;2.07;1.97;;;20.70;45.10;;;;;;5004777;28;20464;-76
2023/05/26 10:13:10;;;;;;;2.17;1.97;;;20.70;45.10;;;;;;4988536;28;20431;-76
2023/05/26 10:15:37;;;;;;;3.27;2.73;;;20.70;45.10;;;;;;4992154;28;20476;-73
2023/05/26 10:18:03;;;;;;;2.30;2.20;;;20.70;45.10;;;;;;5006456;28;20451;-75
2023/05/26 10:20:29;;;;;;;2.43;2.23;;;20.70;45.00;;;;;;4996724;28;20228;-77
2023/05/26 10:23:14;;;;;;;2.43;2.23;;;20.70;45.10;;;;;;4983315;28;20679;-77
2023/05/26 10:25:54;;;;;;;2.20;2.00;;;20.80;45.10;;;;;;4999379;28;20511;-72
2023/05/26 10:28:26;;;;;;;3.23;2.50;;;20.70;45.00;;;;;;5020665;28;20467;-76
2023/05/26 10:31:00;;;;;;;2.67;2.47;;;20.80;45.10;;;;;;5002865;28;20469;-76
2023/05/26 10:33:36;;;;;;;2.80;2.60;;;20.80;45.20;;;;;;5005089;28;20455;-75
2023/05/26 10:36:18;;;;;;;2.40;2.17;;;20.80;45.10;;;;;;5004919;28;20472;-76
2023/05/26 10:38:51;;;;;;;2.27;2.07;;;20.70;45.00;;;;;;4989823;28;20470;-75
2023/05/26 10:41:48;;;;;;;3.87;2.60;;;20.80;45.10;;;;;;5009141;28;20500;-76
2023/05/26 10:44:38;;;;;;;2.50;2.30;;;20.80;45.00;;;;;;4997458;28;20953;-76
2023/05/26 10:47:04;;;;;;;2.23;2.03;;;20.80;45.10;;;;;;4997462;28;20456;-76
2023/05/26 10:49:35;;;;;;;2.40;2.20;;;20.80;45.20;;;;;;4991598;28;21191;-73
2023/05/26 10:52:14;;;;;;;2.00;1.90;;;20.80;45.20;;;;;;4994115;28;20493;-76
2023/05/26 10:54:40;;;;;;;2.07;1.97;;;20.80;45.30;;;;;;5000418;28;20964;-77
2023/05/26 10:57:30;;;;;;;2.70;2.50;;;20.80;45.10;;;;;;4999189;28;21004;-74
2023/05/26 10:59:56;;;;;;;3.10;2.17;;;20.80;45.10;;;;;;5008360;28;20487;-76
2023/05/26 11:02:23;;;;;;;2.47;2.27;;;20.80;45.20;;;;;;4995820;28;20469;-77
2023/05/26 11:04:50;;;;;;;2.47;2.30;;;20.80;46.00;;;;;;4995934;28;20259;-72
2023/05/26 11:07:24;;;;;;;2.70;2.50;;;20.80;45.20;;;;;;5007551;28;20476;-76
2023/05/26 11:09:56;;;;;;;2.40;2.20;;;20.80;45.30;;;;;;4992414;28;20518;-75
2023/05/26 11:12:22;;;;;;;4.93;2.57;;;20.80;45.20;;;;;;4998945;28;20519;-77
2023/05/26 11:14:48;;;;;;;2.47;2.27;;;20.80;45.20;;;;;;5002189;28;20559;-73
2023/05/26 11:17:18;;;;;;;2.13;2.03;;;20.80;45.30;;;;;;4997997;28;20690;-75
2023/05/26 11:19:53;;;;;;;3.30;2.70;;;20.80;45.20;;;;;;4994999;28;20544;-74
2023/05/26 11:22:21;;;;;;;2.10;2.00;;;20.80;45.30;;;;;;5000519;28;21050;-71
2023/05/26 11:24:49;;;;;;;2.73;2.53;;;20.80;45.30;;;;;;5005549;28;20443;-76
2023/05/26 11:27:15;;;;;;;2.40;2.20;;;20.80;45.20;;;;;;5036471;28;20444;-73
2023/05/26 11:29:40;;;;;;;2.57;2.37;;;20.80;45.30;;;;;;5009703;28;20889;-75
2023/05/26 11:32:06;;;;;;;2.20;2.00;;;20.80;45.20;;;;;;4999602;28;20466;-77
2023/05/26 11:34:31;;;;;;;2.57;2.37;;;20.80;45.20;;;;;;4998372;28;20223;-77
2023/05/26 11:36:58;;;;;;;2.50;2.30;;;20.80;45.30;;;;;;4996700;28;20288;-77
2023/05/26 11:39:24;;;;;;;2.67;2.40;;;20.80;45.20;;;;;;5010033;28;20317;-77
2023/05/26 11:41:50;;;;;;;3.10;2.17;;;20.80;45.20;;;;;;5003616;28;20867;-76
2023/05/26 11:44:15;;;;;;;2.50;2.27;;;20.80;45.20;;;;;;4998458;28;20219;-77
2023/05/26 11:46:43;;;;;;;2.27;2.17;;;20.80;45.20;;;;;;5004186;28;20488;-76
2023/05/26 11:49:16;;;;;;;2.67;2.13;;;20.80;45.20;;;;;;4993585;28;20604;-75
2023/05/26 11:51:50;;;;;;;2.30;2.10;;;20.80;45.20;;;;;;5006094;28;21269;-73
2023/05/26 11:54:17;;;;;;;2.20;1.97;;;20.80;45.20;;;;;;5002692;28;20492;-71
2023/05/26 11:56:44;;;;;;;2.40;2.20;;;20.90;45.40;;;;;;5003463;28;20974;-76
2023/05/26 11:59:10;;;;;;;2.10;1.90;;;20.90;45.40;;;;;;5005434;28;20488;-76
2023/05/26 12:01:35;;;;;;;2.10;1.93;;;20.80;45.20;;;;;;5005818;28;20431;-73
2023/05/26 12:04:04;;;;;;;2.77;2.50;;;20.90;45.30;;;;;;5013803;28;20621;-76
2023/05/26 12:06:30;;;;;;;2.30;2.10;;;20.90;45.40;;;;;;5005922;28;20471;-76
2023/05/26 12:08:58;;;;;;;3.00;2.70;;;20.90;45.40;;;;;;5009324;28;20440;-75
2023/05/26 12:11:34;;;;;;;3.03;2.20;;;20.90;45.40;;;;;;5016862;28;20858;-72
2023/05/26 12:14:04;;;;;;;2.73;2.53;;;20.90;46.10;;;;;;5008355;28;20447;-74
2023/05/26 12:16:29;;;;;;;2.47;2.33;;;20.90;45.40;;;;;;5007972;28;20495;-76
2023/05/26 12:18:57;;;;;;;3.03;2.80;;;20.90;45.20;;;;;;5001055;28;20872;-76
2023/05/26 12:21:24;;;;;;;2.93;2.73;;;20.90;45.30;;;;;;5012412;28;20689;-76
2023/05/26 12:23:50;;;;;;;2.80;2.60;;;20.90;46.10;;;;;;5002682;28;20463;-76
2023/05/26 12:26:22;;;;;;;3.03;2.43;;;20.90;45.30;;;;;;5017337;28;20430;-77
2023/05/26 12:29:04;;;;;;;2.13;1.93;;;20.90;45.30;;;;;;5011695;28;20446;-77
2023/05/26 12:31:42;;;;;;;2.00;1.90;;;20.90;45.20;;;;;;5007630;28;20846;-77
2023/05/26 12:34:10;;;;;;;19.90;3.33;;;20.90;45.40;;;;;;5027147;28;20472;-76
2023/05/26 12:36:36;;;;;;;3.10;2.50;;;20.90;45.30;;;;;;4996106;28;20965;-75
2023/05/26 12:39:02;;;;;;;3.10;2.30;;;20.90;45.20;;;;;;5008403;28;20475;-75
2023/05/26 12:41:27;;;;;;;2.80;2.60;;;20.90;45.10;;;;;;5012236;28;20238;-75
2023/05/26 12:43:53;;;;;;;2.47;2.23;;;20.90;45.10;;;;;;5011796;28;20918;-76
2023/05/26 12:46:19;;;;;;;2.70;2.50;;;20.90;45.20;;;;;;5014243;28;20227;-73
2023/05/26 12:48:44;;;;;;;2.53;2.33;;;20.90;45.10;;;;;;5002200;28;21820;-72